createdAt,value
2023-05-07T00:01:46.623Z,16.40
2023-05-07T00:04:14.477Z,16.40
2023-05-07T00:06:41.459Z,16.30
2023-05-07T00:09:08.349Z,16.30
2023-05-07T00:11:37.214Z,16.20
2023-05-07T00:14:04.286Z,16.40
2023-05-07T00:16:31.350Z,16.40
2023-05-07T00:18:58.425Z,16.30
2023-05-07T00:21:27.611Z,16.30
2023-05-07T00:23:55.319Z,16.40
2023-05-07T00:26:22.807Z,16.40
2023-05-07T00:28:49.569Z,16.40
2023-05-07T00:31:16.570Z,16.30
2023-05-07T00:33:43.405Z,16.20
2023-05-07T00:36:10.627Z,16.20
2023-05-07T00:38:37.358Z,16.20
2023-05-07T00:41:04.279Z,16.10
2023-05-07T00:43:31.087Z,16.10
2023-05-07T00:45:58.147Z,16.10
2023-05-07T00:48:25.960Z,16.10
2023-05-07T00:50:53.036Z,16.20
2023-05-07T00:53:20.188Z,16.20
2023-05-07T00:55:47.254Z,16.20
2023-05-07T00:58:14.111Z,16.20
2023-05-07T01:00:41.608Z,16.20
2023-05-07T01:03:08.435Z,16.20
2023-05-07T01:05:36.084Z,16.20
2023-05-07T01:08:04.682Z,16.10
2023-05-07T01:10:31.721Z,16.10
2023-05-07T01:13:00.100Z,16.00
2023-05-07T01:15:27.002Z,16.10
2023-05-07T01:17:53.854Z,16.10
2023-05-07T01:20:21.090Z,16.10
2023-05-07T01:22:48.205Z,15.90
2023-05-07T01:25:17.303Z,15.80
2023-05-07T01:27:44.109Z,15.90
2023-05-07T01:30:11.507Z,15.80
2023-05-07T01:32:51.538Z,15.90
2023-05-07T01:35:21.941Z,15.90
2023-05-07T01:37:50.535Z,15.80
2023-05-07T01:40:17.830Z,15.90
2023-05-07T01:42:45.015Z,15.80
2023-05-07T01:45:12.406Z,15.70
2023-05-07T01:47:40.462Z,15.70
2023-05-07T01:50:09.848Z,15.70
2023-05-07T01:52:39.668Z,15.80
2023-05-07T01:55:07.453Z,15.80
2023-05-07T01:57:34.268Z,15.90
2023-05-07T02:00:01.090Z,15.80
2023-05-07T02:02:27.939Z,15.80
2023-05-07T02:04:54.816Z,15.80
2023-05-07T02:07:21.676Z,15.80
2023-05-07T02:09:48.472Z,15.70
2023-05-07T02:12:15.353Z,15.70
2023-05-07T02:14:42.358Z,15.80
2023-05-07T02:17:09.620Z,15.70
2023-05-07T02:19:36.372Z,15.70
2023-05-07T02:22:03.141Z,15.60
2023-05-07T02:24:29.957Z,15.60
2023-05-07T02:26:56.762Z,15.60
2023-05-07T02:29:23.546Z,15.50
2023-05-07T02:31:51.888Z,15.60
2023-05-07T02:34:18.919Z,15.50
2023-05-07T02:36:46.562Z,15.60
2023-05-07T02:39:14.142Z,15.60
2023-05-07T02:41:40.949Z,15.60
2023-05-07T02:44:07.776Z,15.60
2023-05-07T02:46:34.551Z,15.50
2023-05-07T02:49:01.302Z,15.50
2023-05-07T02:51:28.245Z,15.40
2023-05-07T02:53:55.002Z,15.30
2023-05-07T02:56:22.078Z,15.50
2023-05-07T02:58:48.845Z,15.50
2023-05-07T03:01:15.933Z,15.50
2023-05-07T03:03:42.743Z,15.50
2023-05-07T03:06:09.642Z,15.50
2023-05-07T03:08:37.487Z,15.30
2023-05-07T03:11:04.288Z,15.40
2023-05-07T03:13:31.161Z,15.30
2023-05-07T03:15:57.992Z,15.30
2023-05-07T03:18:24.887Z,15.40
2023-05-07T03:20:52.890Z,15.40
2023-05-07T03:23:19.904Z,15.40
2023-05-07T03:25:46.756Z,15.40
2023-05-07T03:28:13.524Z,15.50
2023-05-07T03:30:40.311Z,15.30
2023-05-07T03:33:07.082Z,15.20
2023-05-07T03:35:33.920Z,15.20
2023-05-07T03:38:02.595Z,15.30
2023-05-07T03:40:29.813Z,15.30
2023-05-07T03:42:56.678Z,15.20
2023-05-07T03:45:23.732Z,15.20
2023-05-07T03:47:50.595Z,15.30
2023-05-07T03:50:17.441Z,15.20
2023-05-07T03:52:44.249Z,15.30
2023-05-07T03:55:11.257Z,15.20
2023-05-07T03:57:38.056Z,15.20
2023-05-07T04:00:06.137Z,15.20
2023-05-07T04:02:33.940Z,15.30
2023-05-07T04:05:00.850Z,15.30
2023-05-07T04:07:27.748Z,15.30
2023-05-07T04:09:54.489Z,15.20
2023-05-07T04:12:21.333Z,15.20
2023-05-07T04:14:48.148Z,15.10
2023-05-07T04:17:14.911Z,15.10
2023-05-07T04:19:46.138Z,15.20
2023-05-07T04:22:13.154Z,15.20
2023-05-07T04:24:39.936Z,15.20
2023-05-07T04:27:07.460Z,15.10
2023-05-07T04:29:34.369Z,15.00
2023-05-07T04:32:01.361Z,15.10
2023-05-07T04:34:28.251Z,15.00
2023-05-07T04:36:55.030Z,15.10
2023-05-07T04:39:21.884Z,15.20
2023-05-07T04:41:48.688Z,15.10
2023-05-07T04:44:15.715Z,15.10
2023-05-07T04:46:42.513Z,15.20
2023-05-07T04:49:09.302Z,15.20
2023-05-07T04:51:36.144Z,15.10
2023-05-07T04:54:02.964Z,15.20
2023-05-07T04:56:33.345Z,15.20
2023-05-07T04:59:00.212Z,15.30
2023-05-07T05:01:27.118Z,15.30
2023-05-07T05:03:54.041Z,15.20
2023-05-07T05:06:20.896Z,15.20
2023-05-07T05:08:47.643Z,15.20
2023-05-07T05:11:15.979Z,15.20
2023-05-07T05:13:42.759Z,15.20
2023-05-07T05:16:09.609Z,15.30
2023-05-07T05:18:36.576Z,15.20
2023-05-07T05:21:03.481Z,15.10
2023-05-07T05:23:30.490Z,15.20
2023-05-07T05:26:00.493Z,15.10
2023-05-07T05:28:28.492Z,15.20
2023-05-07T05:30:55.273Z,15.30
2023-05-07T05:33:22.086Z,15.20
2023-05-07T05:35:50.742Z,15.30
2023-05-07T05:38:17.623Z,15.20
2023-05-07T05:40:44.425Z,15.20
2023-05-07T05:43:11.286Z,15.20
2023-05-07T05:45:38.080Z,15.30
2023-05-07T05:48:05.059Z,15.30
2023-05-07T05:50:31.836Z,15.30
2023-05-07T05:53:00.470Z,15.30
2023-05-07T05:55:27.795Z,15.30
2023-05-07T05:57:54.620Z,15.50
2023-05-07T06:00:23.544Z,15.60
2023-05-07T06:02:50.870Z,15.60
2023-05-07T06:05:17.943Z,15.70
2023-05-07T06:07:44.828Z,15.70
2023-05-07T06:10:11.927Z,15.70
2023-05-07T06:12:39.075Z,15.80
2023-05-07T06:15:06.509Z,15.80
2023-05-07T06:17:33.386Z,15.90
2023-05-07T06:20:00.248Z,15.90
2023-05-07T06:22:27.097Z,15.90
2023-05-07T06:24:53.863Z,15.90
2023-05-07T06:27:20.593Z,16.00
2023-05-07T06:29:49.864Z,16.10
2023-05-07T06:32:18.056Z,16.00
2023-05-07T06:34:44.846Z,16.10
2023-05-07T06:37:11.831Z,16.10
2023-05-07T06:39:38.615Z,16.10
2023-05-07T06:42:05.711Z,16.20
2023-05-07T06:44:32.832Z,16.20
2023-05-07T06:46:59.929Z,16.20
2023-05-07T06:49:26.744Z,16.30
2023-05-07T06:51:53.662Z,16.30
2023-05-07T06:54:21.303Z,16.40
2023-05-07T06:56:48.081Z,16.30
2023-05-07T06:59:15.103Z,16.40
2023-05-07T07:01:41.933Z,16.40
2023-05-07T07:04:08.987Z,16.40
2023-05-07T07:06:35.798Z,16.50
2023-05-07T07:09:02.641Z,16.60
2023-05-07T07:11:29.384Z,16.60
2023-05-07T07:13:56.143Z,16.70
2023-05-07T07:16:23.245Z,16.80
2023-05-07T07:18:50.131Z,16.80
2023-05-07T07:21:17.038Z,16.80
2023-05-07T07:23:43.936Z,16.90
2023-05-07T07:26:10.945Z,17.00
2023-05-07T07:28:46.760Z,17.00
2023-05-07T07:31:14.485Z,17.10
2023-05-07T07:33:41.647Z,17.10
2023-05-07T07:36:08.756Z,17.20
2023-05-07T07:38:35.965Z,17.30
2023-05-07T07:41:02.896Z,17.50
2023-05-07T07:43:29.932Z,17.50
2023-05-07T07:45:56.769Z,17.40
2023-05-07T07:48:23.598Z,17.40
2023-05-07T07:50:54.366Z,17.50
2023-05-07T07:53:21.347Z,17.90
2023-05-07T07:55:48.196Z,17.80
2023-05-07T07:58:15.047Z,17.60
2023-05-07T08:00:41.905Z,17.90
2023-05-07T08:03:11.520Z,17.80
2023-05-07T08:05:39.507Z,18.20
2023-05-07T08:08:07.196Z,18.30
2023-05-07T08:10:35.822Z,18.40
2023-05-07T08:13:05.015Z,18.50
2023-05-07T08:15:32.384Z,18.50
2023-05-07T08:18:01.188Z,18.80
2023-05-07T08:20:29.058Z,18.90
2023-05-07T08:22:55.976Z,19.30
2023-05-07T08:25:22.914Z,19.10
2023-05-07T08:27:49.683Z,19.00
2023-05-07T08:30:17.164Z,18.90
2023-05-07T08:32:44.078Z,18.80
2023-05-07T08:35:11.074Z,18.70
2023-05-07T08:37:37.982Z,18.80
2023-05-07T08:40:06.729Z,18.90
2023-05-07T08:42:39.091Z,19.20
2023-05-07T08:45:10.529Z,19.20
2023-05-07T08:47:51.732Z,19.30
2023-05-07T08:50:19.076Z,19.30
2023-05-07T08:52:46.355Z,19.40
2023-05-07T08:55:14.605Z,19.50
2023-05-07T08:57:41.747Z,19.40
2023-05-07T09:00:09.194Z,19.50
2023-05-07T09:02:39.269Z,19.50
2023-05-07T09:05:06.625Z,19.40
2023-05-07T09:07:33.460Z,19.50
2023-05-07T09:10:03.488Z,19.50
2023-05-07T09:12:30.339Z,19.70
2023-05-07T09:14:57.411Z,19.90
2023-05-07T09:17:24.242Z,19.90
2023-05-07T09:19:51.521Z,20.10
2023-05-07T09:22:18.321Z,20.20
2023-05-07T09:24:53.199Z,20.20
2023-05-07T09:27:20.039Z,20.20
2023-05-07T09:29:46.829Z,20.20
2023-05-07T09:32:14.361Z,20.50
2023-05-07T09:34:42.262Z,20.60
2023-05-07T09:37:09.104Z,20.60
2023-05-07T09:39:50.640Z,20.80
2023-05-07T09:42:17.527Z,20.90
2023-05-07T09:44:48.398Z,21.00
2023-05-07T09:47:20.113Z,20.80
2023-05-07T09:49:49.414Z,21.00
2023-05-07T09:52:17.155Z,21.10
2023-05-07T09:54:45.170Z,21.10
2023-05-07T09:57:13.093Z,21.40
2023-05-07T09:59:43.296Z,21.30
2023-05-07T10:02:11.402Z,21.40
2023-05-07T10:04:38.467Z,21.40
2023-05-07T10:07:06.700Z,21.60
2023-05-07T10:09:34.012Z,21.60
2023-05-07T10:12:01.322Z,21.60
2023-05-07T10:14:29.054Z,21.70
2023-05-07T10:16:56.268Z,21.70
2023-05-07T10:19:23.802Z,21.50
2023-05-07T10:21:57.966Z,21.40
2023-05-07T10:24:32.554Z,21.80
2023-05-07T10:27:20.861Z,21.80
2023-05-07T10:29:50.761Z,21.80
2023-05-07T10:32:20.381Z,22.00
2023-05-07T10:34:49.955Z,21.90
2023-05-07T10:37:17.735Z,22.10
2023-05-07T10:39:49.806Z,21.90
2023-05-07T10:42:16.736Z,22.10
2023-05-07T10:44:43.615Z,22.00
2023-05-07T10:47:12.592Z,22.00
2023-05-07T10:49:45.249Z,22.30
2023-05-07T10:52:17.203Z,22.40
2023-05-07T10:54:45.637Z,22.30
2023-05-07T10:57:37.950Z,22.10
2023-05-07T11:00:37.988Z,22.30
2023-05-07T11:03:07.829Z,22.80
2023-05-07T11:05:38.223Z,22.70
2023-05-07T11:08:06.506Z,22.70
2023-05-07T11:10:56.358Z,22.80
2023-05-07T11:13:46.014Z,22.50
2023-05-07T11:16:21.547Z,22.40
2023-05-07T11:18:50.898Z,22.50
2023-05-07T11:21:41.261Z,21.80
2023-05-07T11:24:10.218Z,22.20
2023-05-07T11:27:03.342Z,22.60
2023-05-07T11:29:31.828Z,22.70
2023-05-07T11:31:59.618Z,23.10
2023-05-07T11:34:27.518Z,22.90
2023-05-07T11:36:54.375Z,23.00
2023-05-07T11:39:28.223Z,22.90
2023-05-07T11:41:55.224Z,22.90
2023-05-07T11:44:22.089Z,22.90
2023-05-07T11:46:50.031Z,23.50
2023-05-07T11:49:17.123Z,23.70
2023-05-07T11:51:44.202Z,23.30
2023-05-07T11:54:12.453Z,22.90
2023-05-07T11:56:40.112Z,22.80
2023-05-07T11:59:07.240Z,22.70
2023-05-07T12:01:36.546Z,22.80
2023-05-07T12:04:04.957Z,22.70
2023-05-07T12:06:32.212Z,22.00
2023-05-07T12:08:59.046Z,22.50
2023-05-07T12:11:26.878Z,22.50
2023-05-07T12:13:58.923Z,22.40
2023-05-07T12:16:26.519Z,22.30
2023-05-07T12:18:56.129Z,21.80
2023-05-07T12:21:24.214Z,21.80
2023-05-07T12:23:51.494Z,21.80
2023-05-07T12:26:20.076Z,22.10
2023-05-07T12:28:47.544Z,22.10
2023-05-07T12:31:16.147Z,22.00
2023-05-07T12:33:43.801Z,21.60
2023-05-07T12:36:13.226Z,21.70
2023-05-07T12:38:41.598Z,22.10
2023-05-07T12:41:21.226Z,21.90
2023-05-07T12:43:48.128Z,21.90
2023-05-07T12:46:15.634Z,22.00
2023-05-07T12:48:47.327Z,21.90
2023-05-07T12:51:16.039Z,21.70
2023-05-07T12:53:43.821Z,21.90
2023-05-07T12:56:11.045Z,21.80
2023-05-07T12:58:38.084Z,21.60
2023-05-07T13:01:10.859Z,21.70
2023-05-07T13:03:39.571Z,21.70
2023-05-07T13:06:11.462Z,21.50
2023-05-07T13:08:41.854Z,21.60
2023-05-07T13:11:11.165Z,21.80
2023-05-07T13:13:40.219Z,21.70
2023-05-07T13:16:09.122Z,21.80
2023-05-07T13:18:36.629Z,21.60
2023-05-07T13:21:03.789Z,21.60
2023-05-07T13:23:30.580Z,21.60
2023-05-07T13:25:57.783Z,21.70
2023-05-07T13:28:25.714Z,21.70
2023-05-07T13:30:53.359Z,21.60
2023-05-07T13:33:20.352Z,21.40
2023-05-07T13:35:47.214Z,21.30
2023-05-07T13:38:14.075Z,21.00
2023-05-07T13:40:40.842Z,21.00
2023-05-07T13:43:07.817Z,20.90
2023-05-07T13:45:34.671Z,20.80
2023-05-07T13:48:01.845Z,20.80
2023-05-07T13:50:30.728Z,20.60
2023-05-07T13:52:57.657Z,20.50
2023-05-07T13:55:25.388Z,20.20
2023-05-07T13:58:00.287Z,20.10
2023-05-07T14:00:28.299Z,20.10
2023-05-07T14:02:56.080Z,20.10
2023-05-07T14:05:26.360Z,20.10
2023-05-07T14:07:54.167Z,20.10
2023-05-07T14:10:21.504Z,20.00
2023-05-07T14:12:48.778Z,20.10
2023-05-07T14:15:17.144Z,19.90
2023-05-07T14:17:45.077Z,19.80
2023-05-07T14:20:13.657Z,19.90
2023-05-07T14:22:40.707Z,19.90
2023-05-07T14:25:08.400Z,19.80
2023-05-07T14:27:35.240Z,19.70
2023-05-07T14:30:02.198Z,19.50
2023-05-07T14:32:29.068Z,19.60
2023-05-07T14:34:55.856Z,19.30
2023-05-07T14:37:22.767Z,19.10
2023-05-07T14:39:50.225Z,18.90
2023-05-07T14:42:18.317Z,18.90
2023-05-07T14:44:46.489Z,18.70
2023-05-07T14:47:13.978Z,18.80
2023-05-07T14:49:42.023Z,18.60
2023-05-07T14:52:11.093Z,18.40
2023-05-07T14:54:39.358Z,18.60
2023-05-07T14:57:07.686Z,18.40
2023-05-07T14:59:34.930Z,18.50
2023-05-07T15:02:04.428Z,18.30
2023-05-07T15:04:32.368Z,18.40
2023-05-07T15:06:59.183Z,18.40
2023-05-07T15:09:25.954Z,18.30
2023-05-07T15:11:53.185Z,18.10
2023-05-07T15:14:20.223Z,18.40
2023-05-07T15:16:47.473Z,18.30
2023-05-07T15:19:15.998Z,18.40
2023-05-07T15:21:42.915Z,18.30
2023-05-07T15:24:10.388Z,18.40
2023-05-07T15:26:37.352Z,18.50
2023-05-07T15:29:09.153Z,18.40
2023-05-07T15:31:36.092Z,18.30
2023-05-07T15:34:03.085Z,18.40
2023-05-07T15:36:32.646Z,18.40
2023-05-07T15:38:59.489Z,18.50
2023-05-07T15:41:26.442Z,18.50
2023-05-07T15:43:53.996Z,18.40
2023-05-07T15:46:22.689Z,18.30
2023-05-07T15:48:49.804Z,18.40
2023-05-07T15:51:17.712Z,18.40
2023-05-07T15:53:45.039Z,18.50
2023-05-07T15:56:12.016Z,18.60
2023-05-07T15:58:39.101Z,18.60
2023-05-07T16:01:06.029Z,18.80
2023-05-07T16:03:33.101Z,18.70
2023-05-07T16:06:00.980Z,18.70
2023-05-07T16:08:28.283Z,18.90
2023-05-07T16:10:55.579Z,18.70
2023-05-07T16:13:24.877Z,18.80
2023-05-07T16:15:57.383Z,18.70
2023-05-07T16:18:24.329Z,18.70
2023-05-07T16:20:51.171Z,18.80
2023-05-07T16:23:18.171Z,18.70
2023-05-07T16:25:45.012Z,18.80
2023-05-07T16:28:11.961Z,18.70
2023-05-07T16:30:38.812Z,18.80
2023-05-07T16:33:05.794Z,18.80
2023-05-07T16:35:32.810Z,18.80
2023-05-07T16:37:59.832Z,18.80
2023-05-07T16:40:27.213Z,19.00
2023-05-07T16:42:55.497Z,18.90
2023-05-07T16:45:23.280Z,18.80
2023-05-07T16:47:50.362Z,18.90
2023-05-07T16:50:17.186Z,19.00
2023-05-07T16:52:43.913Z,18.90
2023-05-07T16:55:11.507Z,18.80
2023-05-07T16:57:38.779Z,18.90
2023-05-07T17:00:07.473Z,18.90
2023-05-07T17:02:37.219Z,19.00
2023-05-07T17:05:06.249Z,19.10
2023-05-07T17:07:33.103Z,19.00
2023-05-07T17:10:00.140Z,19.00
2023-05-07T17:12:27.074Z,19.00
2023-05-07T17:14:53.913Z,19.10
2023-05-07T17:17:20.646Z,18.90
2023-05-07T17:19:47.417Z,18.90
2023-05-07T17:22:14.325Z,18.80
2023-05-07T17:24:41.182Z,18.80
2023-05-07T17:27:08.048Z,18.70
2023-05-07T17:29:34.897Z,18.70
2023-05-07T17:32:02.002Z,18.80
2023-05-07T17:34:28.940Z,18.80
2023-05-07T17:36:57.535Z,18.70
2023-05-07T17:39:24.510Z,18.80
2023-05-07T17:41:51.331Z,18.90
2023-05-07T17:44:18.824Z,18.90
2023-05-07T17:46:45.951Z,18.70
2023-05-07T17:49:14.474Z,18.80
2023-05-07T17:51:53.445Z,18.80
2023-05-07T17:54:23.055Z,18.70
2023-05-07T17:56:49.825Z,18.80
2023-05-07T17:59:16.637Z,18.70
2023-05-07T18:01:44.310Z,18.70
2023-05-07T18:04:11.348Z,18.70
2023-05-07T18:06:38.899Z,18.70
2023-05-07T18:09:06.018Z,18.70
2023-05-07T18:11:33.619Z,18.60
2023-05-07T18:14:00.755Z,18.60
2023-05-07T18:16:27.680Z,18.60
2023-05-07T18:18:55.440Z,18.60
2023-05-07T18:21:22.426Z,18.60
2023-05-07T18:23:49.522Z,18.40
2023-05-07T18:26:16.561Z,18.30
2023-05-07T18:28:43.728Z,18.30
2023-05-07T18:31:11.116Z,18.30
2023-05-07T18:33:37.968Z,18.20
2023-05-07T18:36:05.091Z,18.10
2023-05-07T18:38:32.445Z,18.10
2023-05-07T18:41:04.411Z,18.10
2023-05-07T18:43:31.767Z,18.20
2023-05-07T18:45:58.691Z,18.10
2023-05-07T18:48:25.782Z,18.20
2023-05-07T18:50:52.687Z,18.20
2023-05-07T18:53:19.638Z,18.10
2023-05-07T18:55:52.882Z,18.20
2023-05-07T18:58:20.286Z,18.10
2023-05-07T19:00:51.279Z,18.10
2023-05-07T19:03:18.246Z,18.00
2023-05-07T19:05:45.753Z,18.00
2023-05-07T19:08:13.131Z,18.00
2023-05-07T19:10:39.942Z,18.00
2023-05-07T19:13:06.860Z,18.00
2023-05-07T19:15:34.132Z,17.80
2023-05-07T19:18:01.448Z,17.90
2023-05-07T19:20:29.262Z,18.00
2023-05-07T19:22:56.414Z,17.90
2023-05-07T19:25:23.329Z,17.90
2023-05-07T19:27:51.252Z,17.90
2023-05-07T19:30:18.849Z,18.00
2023-05-07T19:32:45.824Z,18.00
2023-05-07T19:35:13.033Z,17.90
2023-05-07T19:37:39.967Z,17.90
2023-05-07T19:40:08.813Z,17.90
2023-05-07T19:42:36.378Z,17.90
2023-05-07T19:45:04.481Z,17.90
2023-05-07T19:47:31.336Z,17.70
2023-05-07T19:49:58.230Z,17.80
2023-05-07T19:52:25.069Z,17.80
2023-05-07T19:54:51.979Z,17.60
2023-05-07T19:57:18.894Z,17.60
2023-05-07T19:59:46.963Z,17.70
2023-05-07T20:02:14.048Z,17.80
2023-05-07T20:04:40.834Z,17.80
2023-05-07T20:07:07.882Z,17.70
2023-05-07T20:09:34.795Z,17.70
2023-05-07T20:12:01.825Z,17.60
2023-05-07T20:14:28.769Z,17.70
2023-05-07T20:16:55.714Z,17.60
2023-05-07T20:19:22.628Z,17.70
2023-05-07T20:21:49.653Z,17.60
2023-05-07T20:24:19.217Z,17.50
2023-05-07T20:26:46.861Z,17.50
2023-05-07T20:29:13.787Z,17.30
2023-05-07T20:31:40.650Z,17.50
2023-05-07T20:34:07.753Z,17.50
2023-05-07T20:36:34.816Z,17.50
2023-05-07T20:39:01.991Z,17.50
2023-05-07T20:41:28.884Z,17.50
2023-05-07T20:43:57.119Z,17.40
2023-05-07T20:46:25.323Z,17.40
2023-05-07T20:48:52.564Z,17.40
2023-05-07T20:51:19.413Z,17.40
2023-05-07T20:53:47.916Z,17.40
2023-05-07T20:56:15.420Z,17.40
2023-05-07T20:58:42.280Z,17.40
2023-05-07T21:01:12.415Z,17.40
2023-05-07T21:03:39.219Z,17.40
2023-05-07T21:06:06.116Z,17.40
2023-05-07T21:08:32.910Z,17.50
2023-05-07T21:10:59.744Z,17.40
2023-05-07T21:13:26.698Z,17.40
2023-05-07T21:15:53.601Z,17.40
2023-05-07T21:18:20.679Z,17.40
2023-05-07T21:20:47.484Z,17.40
2023-05-07T21:23:14.235Z,17.30
2023-05-07T21:25:41.448Z,17.30
2023-05-07T21:28:08.892Z,17.30
2023-05-07T21:30:36.818Z,17.10
2023-05-07T21:33:06.860Z,17.20
2023-05-07T21:35:35.968Z,17.10
2023-05-07T21:38:03.091Z,17.00
2023-05-07T21:40:30.058Z,17.00
2023-05-07T21:42:57.951Z,17.10
2023-05-07T21:45:24.800Z,17.00
2023-05-07T21:47:51.769Z,16.90
2023-05-07T21:50:19.046Z,17.00
2023-05-07T21:52:46.665Z,16.90
2023-05-07T21:55:13.883Z,16.90
2023-05-07T21:57:43.624Z,16.90
2023-05-07T22:00:13.512Z,16.80
2023-05-07T22:02:40.609Z,16.90
2023-05-07T22:05:07.819Z,16.80
2023-05-07T22:07:34.591Z,16.80
2023-05-07T22:10:01.609Z,16.80
2023-05-07T22:12:28.357Z,16.80
2023-05-07T22:14:55.194Z,16.70
2023-05-07T22:17:23.649Z,16.80
2023-05-07T22:19:50.857Z,16.80
2023-05-07T22:22:19.130Z,16.90
2023-05-07T22:24:46.498Z,16.90
2023-05-07T22:27:13.338Z,16.90
2023-05-07T22:29:40.685Z,16.80
2023-05-07T22:32:08.018Z,16.70
2023-05-07T22:34:36.091Z,16.70
2023-05-07T22:37:02.921Z,16.70
2023-05-07T22:39:34.308Z,16.60
2023-05-07T22:42:02.333Z,16.70
2023-05-07T22:44:29.408Z,16.80
2023-05-07T22:46:56.210Z,16.70
2023-05-07T22:49:23.092Z,16.70
2023-05-07T22:51:49.877Z,16.60
2023-05-07T22:54:16.697Z,16.70
2023-05-07T22:56:43.528Z,16.70
2023-05-07T22:59:10.350Z,16.80
2023-05-07T23:01:37.301Z,16.80
2023-05-07T23:04:04.258Z,16.70
2023-05-07T23:06:31.080Z,16.80
2023-05-07T23:08:58.909Z,16.70
2023-05-07T23:11:26.405Z,16.70
2023-05-07T23:13:53.181Z,16.80
2023-05-07T23:16:20.014Z,16.80
2023-05-07T23:18:46.906Z,16.80
2023-05-07T23:21:13.758Z,16.70
2023-05-07T23:23:40.503Z,16.60
2023-05-07T23:26:07.306Z,16.60
2023-05-07T23:28:34.232Z,16.60
2023-05-07T23:31:01.273Z,16.60
2023-05-07T23:33:28.120Z,16.60
2023-05-07T23:36:01.927Z,16.60
2023-05-07T23:38:28.893Z,16.70
2023-05-07T23:40:56.665Z,16.60
2023-05-07T23:43:23.595Z,16.60
